Rozšířené hledání} Informace o členství Kontaktní informace Seznam uživatelů Kalendář Spřátelené weby Honda-club.cz Přihlásit se k emailu
[1]
Linka Uživatelské skupiny Linka Galerie avatarů Linka Kdo je online Linka
Linka Jak se stát členem klubu Linka Stáhnout stanovy sdružení Linka Výhody pro členy klubu Linka
   Garáž -> Prohlížet
Přehled autNej autaSeznam autHledat autoPřehled servisůPřehled obchodůPřehled sprintůMěření výkonů

Jdi na stránku Předchozí  1, 2, 3 ... 15, 16, 17, 18  Další 
Třídění aut dle   V   
Foto Rok
 
Značka
 
Model
 
Barva
 
Majitel
 
Zhlédnuto
 
Modifikace
 
Aktualizováno
 
  1991 Honda CR-X VTEC zelena  Zdeny-honda 2864 0 26.1.2010 , 8:50
  1998 Honda Accord vínová  Kubelik 719 0 25.1.2010 , 19:42
  1997 Honda Civic VTEC tmavě fialová  whiteorb 1118 0 23.1.2010 , 20:05
  1999 Honda Accord Type-R Bílá  David Marvan 2521 0 20.1.2010 , 19:07
  1997 Honda Civic Pirates Black Pearl  damim 543 0 19.1.2010 , 23:10
  1993 Honda Prelude Červená  Mystic 2226 0 19.1.2010 , 20:41
  2000 Honda S2000 Berlina Black  Havo 4244 1 16.1.2010 , 13:11
  2001 Honda S2000 stribrna  DaM 4494 0 16.1.2010 , 11:12
  1994 Honda Civic Vti červená r-81  Roverman 9308 3 16.1.2010 , 9:06
  2000 Honda HR-V Stříbrná metalíza  Puzzlehead 754 0 16.1.2010 , 2:06
  1992 Honda Civic červená  CZento 7066 32 16.1.2010 , 0:07
  1997 Honda Prelude modrá  R6D3K 2366 6 14.1.2010 , 0:04
  1994 Honda Civic červená  mti 990 0 13.1.2010 , 9:49
  1986 Honda CR-X Modra  billCRX1G 1729 0 11.1.2010 , 21:50
  1996 Honda Civic Coupe Milano Red  MEJV 1322 0 11.1.2010 , 11:09
  1992 Honda CR-X červená  jaykob 2599 3 9.1.2010 , 10:46
  2006 Honda Civic modra  lukas2122 653 0 9.1.2010 , 8:50
  1990 Honda CR-X červena  juturn 1794 0 8.1.2010 , 17:58
  1991 Honda CR-X stribrna  mike102 671 0 7.1.2010 , 19:15
  1987 Honda CR-X Černa  retrodado 1740 0 6.1.2010 , 13:25
  1995 Honda Civic zlatá metalíza  Tom.Bryan 2504 0 5.1.2010 , 22:28
  1996 Honda CR-X DelSol červená  Zipík 1060 0 5.1.2010 , 20:14
  1998 Honda Civic Aerodeck šedá metaliza  melman 2497 0 5.1.2010 , 18:17
  2008 Honda Civic Type-R Bila  trackwhore 4918 1 5.1.2010 , 7:03
  1995 Honda CR-X DelSol černá  tomekcrx 1568 0 2.1.2010 , 21:06
  1989 Honda Accord Aerodeck stříbrná  Ajsik 2638 0 29.12.2009 , 1:08
  1992 Honda Civic modrá metla  Pick-Creek 1892 3 27.12.2009 , 19:56
  1994 Honda CR-X DelSol cervena  swer 1741 0 24.12.2009 , 23:48
  1988 Honda Prelude červená  Ondra 980 1 24.12.2009 , 22:20
  1997 Honda Prelude VTEC cypres green pearl  odos 3991 0 24.12.2009 , 20:03
  1999 Honda Civic VTEC sicilian red pearl  Marty86 618 0 24.12.2009 , 16:44
  1992 Honda Civic Modrá metalíza  Alweron 1446 1 23.12.2009 , 19:36
  1992 Honda Civic origo červená metalíza  Whistler 1495 0 21.12.2009 , 22:47
  1993 Honda Civic Vti   barel 2808 1 21.12.2009 , 22:28
  1992 Honda Civic červená + bílé pruhy  Tinka 2096 0 17.12.2009 , 15:09
  1998 Honda Prelude S Harley Davidson Grey  TomasVti 2231 0 9.12.2009 , 16:47
  1998 Honda Integra Type-R Championship white  sedrik 2766 0 7.12.2009 , 13:35
  2009 Honda Civic černá  danok 1546 0 27.11.2009 , 20:24
  1996 Honda Civic zelená metal  jelinek79 1663 7 27.11.2009 , 17:11
  1991 Honda CR-X střibrna metla  Jamalek 706 0 23.11.2009 , 23:20
  1997 Honda Accord Coupe Bílá  Vash the Accord 2369 0 22.11.2009 , 2:56
  1991 Honda CR-X Šedá  michhi 2587 1 20.11.2009 , 12:38
  2004 Honda Accord šedá metalíza  Timberland 1939 0 18.11.2009 , 21:12
  1995 Honda Civic zel.met  HondákTom 1113 0 16.11.2009 , 11:35
  1995 Honda Civic Coupe černá  coodl 5357 6 14.11.2009 , 14:57
  1989 Honda Civic červená  Ernst.p 1554 0 12.11.2009 , 13:12
  1997 Honda Civic EK4   luke skunkwalker2 963 0 11.11.2009 , 15:46
  1999 Honda Accord stříbrná metalíza  Algol 1660 0 11.11.2009 , 0:15
  1994 Honda Civic Modrá  speedy5 898 0 8.11.2009 , 18:14
  1997 Honda Civic cervena  martin urban 619 0 6.11.2009 , 17:31
  1993 Honda Civic VTEC Vínová  scoby 1544 2 3.11.2009 , 19:46
  1997 Honda Civic Bordova  marko3 1543 0 1.11.2009 , 20:32
  1999 Honda Civic VTEC SuperSonic Blue Pearl  Jarys 4551 13 30.10.2009 , 21:49
  1991 Honda Civic VT černá  Bouky 2830 0 30.10.2009 , 15:00
  1990 Honda CR-X červená  OzzmanCRX 1636 0 30.10.2009 , 1:48
  1990 Rover 200 GSi vínová  Hrošík 3874 17 27.10.2009 , 20:17
  2000 Honda Prelude Stříbrná  Picbill 1061 0 24.10.2009 , 7:54
  1997 Honda Accord Black Type A  Jendis 717 0 23.10.2009 , 6:41
  1995 Honda Civic Orange lambo  AirEddie 2732 1 21.10.2009 , 8:01
  1999 Honda Accord Type-R Milano red  Pauli 6771 35 17.10.2009 , 19:11
  1991 Honda CR-X červená  MattiK 8910 0 17.10.2009 , 9:30
  1999 Honda Accord Type-R bílá  Petrvti 3784 0 15.10.2009 , 10:26
  1997 Honda Accord Coupe Zelená metalíza  1696 0 11.10.2009 , 19:40
  1997 Honda Accord šedá světlá (nebo spíš stříbrná tmavá)  caras 2409 4 11.10.2009 , 16:19
  1997 Honda Civic   truest 1894 1 6.10.2009 , 17:37
  1992 Honda Civic Černá  tima.j 1836 8 5.10.2009 , 15:49
  1997 Honda Civic Červená  Monina 574 0 2.10.2009 , 14:13
  1998 Honda Prelude VTEC černá metalíza  Y@rin 1631 0 25.9.2009 , 14:38
  1995 Honda Accord divoce zelená  SNAKEJEHAD 743 1 24.9.2009 , 10:03
  2003 Honda Stream grey metalic  Sporťák 2719 0 23.9.2009 , 16:04
  1995 Honda Civic Coupe Vínová metal.  Meda 10344 17 21.9.2009 , 12:01
  1994 Honda Prelude VTEC červena  Jarda-SannyCars 4277 0 20.9.2009 , 21:09
  1994 Honda Civic Coupe Modro-zelená metal.  Sťju 2313 1 19.9.2009 , 21:03
  1998 Honda Civic Vti cervena  bullagi 1624 0 19.9.2009 , 11:27
  1991 Honda CR-X Cerveno-bila Mugen  Jerry_J 2631 0 18.9.2009 , 20:34
  1998 Honda Civic modrá  Nemda 1482 0 17.9.2009 , 15:31
  1995 Honda Civic Coupe stříbrná  Maca.022 813 7 16.9.2009 , 23:13
  1993 Honda Civic Vínová  Audys19 1242 0 10.9.2009 , 12:55
  1997 Honda Prelude červená  vachicek 4259 5 8.9.2009 , 13:45
  2000 Honda Civic Tmavě zelená (Baikal green pearl)  Ivoss 4808 25 7.9.2009 , 17:58
  1995 Honda CR-X DelSol žlutá  Heelen 2151 0 7.9.2009 , 9:57
  1995 Honda Civic zatim oranzova  Prelude3g 1051 0 25.8.2009 , 22:15
  1996 Honda Accord Modrá metalíza  Tomášek 4194 2 23.8.2009 , 13:53
  2003 Honda Civic Sport Satin Silver Metallic  TomiQ 4681 8 19.8.2009 , 20:27
  1997 Honda CR-X DelSol červená  Favi 1765 1 18.8.2009 , 20:24
  1995 Honda Accord udajne seda-metal :-D  Ptak 1627 0 9.8.2009 , 0:36
  1999 Honda Integra Type-R Championship white  Caltiger 5766 5 4.8.2009 , 13:30
  1991 Honda CR-X červená  Ramik 1878 0 4.8.2009 , 9:59
  1993 Honda Civic   jimb 759 0 3.8.2009 , 8:12
  1992 Honda Civic Červená  Riči 1461 0 2.8.2009 , 19:05
  2000 Honda Accord stribrna+cerna  Dave23 778 0 2.8.2009 , 17:51
  1995 Honda Accord LÁHVOVĚZELENÁ METLA  Hanz 4086 0 1.8.2009 , 21:24
  1993 Honda Civic Stříbrná  civa93 2007 3 30.7.2009 , 13:40
  1997 Honda Civic Vti pirates black pearl  LukiS 3270 24 29.7.2009 , 19:32
  1992 Honda CR-X DelSol Červená  Thomaz 1772 4 29.7.2009 , 10:46
  1992 Honda Concerto CERVENA  DARUDE2000 1144 0 28.7.2009 , 5:42
  1998 Honda Civic modra tmava  ignac 3683 22 27.7.2009 , 17:23
  2009 Honda Jazz fialová tmavá perleťová  PHonzejk 1513 0 26.7.2009 , 20:37
  1993 Honda Civic černá  vtivti 2904 0 25.7.2009 , 13:13
  2006 Honda S2000 Silverstone  mikys2000 2900 7 21.7.2009 , 20:06
  1984 Honda CR-X červená  gizmi 3160 11 19.7.2009 , 21:13
  2007 Honda Civic Sport černá  Keyplus 975 0 18.7.2009 , 12:57
  1991 Honda Civic modroseda metaliza  marty89 2545 11 15.7.2009 , 19:31
  2000 Honda Accord Type-R black pearl pirate  pani esova 1926 9 14.7.2009 , 10:13
  1999 Honda Accord základní červená  menor 3068 0 13.7.2009 , 16:40
  1988 Honda Civic červená  Wu-T.A. 1661 0 12.7.2009 , 23:47
  1987 Honda Accord Aerodeck zlata-metal-cerna-matna  arny 2218 0 12.7.2009 , 19:34
  1988 Honda CR-X Stribrna metal  Marphy 2559 0 11.7.2009 , 13:50
  1991 Honda Civic R68  Lord British 1683 0 11.7.2009 , 0:34
  1990 Honda CR-X black  ne-moc 2710 0 8.7.2009 , 23:31
  1994 Honda Civic Coupe černá  juta 852 0 5.7.2009 , 23:45
  1987 Honda Civic GT černá  Minor 3317 0 5.7.2009 , 22:57
  1991 Honda CR-X VTEC v budoucnu šedá metla  Minor 4457 0 5.7.2009 , 22:19
  2004 Honda Civic Cool Jade Silver G517M-světle zelená metla  Leke 9222 0 4.7.2009 , 18:52
  1996 Honda Civic VTEC Červená  hawk14 928 0 29.6.2009 , 21:45
  1995 Honda Civic Modrozelená metalíza  Kentán 2106 17 29.6.2009 , 19:07
  1995 Honda Prelude Vínová červena  max-cz 2338 0 29.6.2009 , 17:45
  2002 Honda Civic Stribrna  CJMonty 6574 0 29.6.2009 , 13:31
  1993 Honda Civic Černá  Klobrcík 3274 15 25.6.2009 , 11:38
  1989 Honda CR-X čierna  Filier 1822 0 22.6.2009 , 16:36
  1998 Honda Civic Aerodeck strieborná metalíza  Ing.Dziwy 1577 0 20.6.2009 , 14:45
  1996 Honda Prelude black pearl  cyborg 4224 15 18.6.2009 , 16:28
  1994 Honda Prelude modrozelená metalíza  Maty 3470 9 17.6.2009 , 22:43
  1987 Honda CR-X fialovocerna  Edik. 914 0 16.6.2009 , 13:56
  1997 Honda Civic THAITIANGREENPEARL  paralen plus 1433 0 15.6.2009 , 23:24
  1994 Honda Civic bílá  ka8ooi 4645 3 14.6.2009 , 23:57
  2001 Honda Accord Amazónská zeleň  DrTc 2435 1 14.6.2009 , 21:40
  1989 Honda Accord Aerodeck bílá  Tomáš Zeiner 961 0 11.6.2009 , 12:35
  1992 Honda Civic stříbrná  Zelo 1494 0 7.6.2009 , 9:37
  1999 Honda Accord modrá  dydzej 2061 3 5.6.2009 , 8:07
  1991 Honda Civic Shuttle červená metla  Tharrrk 1367 0 3.6.2009 , 19:31
  1995 Honda Civic Červená  xxvenaxx 1485 0 2.6.2009 , 9:40
  1990 Honda CR-X černá perlet  cala 812 0 1.6.2009 , 21:13
  1995 Honda Civic Coupe cierna so striebornou perletou  Rodom 2980 0 31.5.2009 , 13:44
  2003 Honda Civic Type-R Night Hawk  Milan CTR 6897 5 31.5.2009 , 10:56
  1997 Honda Prelude VTEC červená  Jelda 2051 0 28.5.2009 , 15:31
  1990 Honda Civic černá  Madyk 1822 9 27.5.2009 , 17:19
  1997 Honda Civic VTEC Černá metalíza  wejmi 1873 0 26.5.2009 , 20:17
  1997 Honda Civic Vti Sicilian red pearl  boleq 1434 0 22.5.2009 , 16:00
  1989 Honda Civic Real Time 4WD Šedá  SpideX 2473 0 19.5.2009 , 1:42
  1991 Honda CR-X čierna  Trso 2278 0 18.5.2009 , 20:17
  1997 Honda Civic Coupe černá  Horďa-Black 4319 9 16.5.2009 , 17:55
  1995 Honda Civic Bielo-Čierna  s8n 1553 0 15.5.2009 , 12:18
  1993 Honda Civic Vti zelená metalíza  shallowhal 2953 0 13.5.2009 , 14:12
  1999 Honda Accord Titan Silver  RuKa 787 0 13.5.2009 , 13:49
  1993 Honda Civic Vínová  Lukys 1824 0 12.5.2009 , 23:54
  1993 Honda CR-X DelSol modrá metalíza  gazin 1485 0 12.5.2009 , 9:49
  1996 Honda Accord Tmavě-červená metaliza  Klemoš 2612 6 11.5.2009 , 20:24
  1990 Honda CR-X Červená  Hondička 2047 0 11.5.2009 , 14:44
  1985 Honda CR-X černá  PepaCR5446 7283 0 10.5.2009 , 22:25
  1993 Honda Civic vinove cervena  Miro 1153 0 10.5.2009 , 15:30
  1991 Honda Accord Aerodeck zelená  dan7970 1867 0 8.5.2009 , 23:42
  1994 Honda Civic VTEC Bílá  Kong 708 0 8.5.2009 , 12:51
  1991 Honda Accord Tmave sediva metaliza  Wizeon 1771 0 3.5.2009 , 22:35
  1996 Honda Civic červeno černá  Sopy 1668 1 3.5.2009 , 21:10
  1994 Honda Civic VTEC čena a modra metaliza  radasss 1943 0 2.5.2009 , 23:13
  1997 Honda Civic střibrná  aztecc 1395 0 2.5.2009 , 22:18
  1997 Honda Civic stříbrná  Jurais 2158 0 2.5.2009 , 7:08
  1998 Honda CR-V černá  HkingH 1670 0 1.5.2009 , 11:26
  1997 Honda Accord orleans blue pearl(tmavě modrá met)  TJimmy 966 0 27.4.2009 , 22:52
  2002 Honda Stream bílá  marab 7336 0 27.4.2009 , 10:48
  1994 Honda Civic Červeno-černá  Mardoc 4160 10 25.4.2009 , 12:30
  1997 Honda Civic Type-R Tm.modrá metalíza  karel 3198 1 25.4.2009 , 7:35
  2008 Honda Civic černá  MIML's 1734 0 24.4.2009 , 11:07
  1995 Honda Civic černo zelená  Fisho 1850 0 24.4.2009 , 9:58
  1994 Honda Civic Bílo černá  Jugmi 2011 3 22.4.2009 , 21:06
  1990 Honda Civic VT Black pearl Alfa Romeo  TommyVTEC 8079 15 21.4.2009 , 23:22
  2001 Honda Civic VTEC Atlantic Blue Pearl 43  Tajda 2461 2 15.4.2009 , 15:07
  1991 Honda Prelude Si Tmavě modrá metalíza  Jakub Erben 6162 4 13.4.2009 , 18:54
  1995 Honda Civic modrá metalíza  dejsyk 3443 18 11.4.2009 , 13:23
  1992 Honda Civic Vti Blue  Žemli 6700 16 11.4.2009 , 10:53
  2009 Honda Accord Tourer šedá  Lisak2 1248 0 11.4.2009 , 8:36
  1998 Honda Civic Pirates Black Pearl  habix 3316 5 10.4.2009 , 22:20
  1988 Honda CR-X Červená  Andrew.DC07 2612 0 10.4.2009 , 21:53
  1995 Honda Civic Vti   nanoVTEC 3844 0 10.4.2009 , 13:03
  2008 Honda Civic Type-R Bílá  Cikán 2857 0 9.4.2009 , 11:11
  1994 Honda Civic VTEC červená  poki 1413 3 8.4.2009 , 13:23
  1994 Honda Civic Černá  Grinsh 2349 0 7.4.2009 , 15:07
  1992 Honda Civic   mijunka 1605 0 6.4.2009 , 13:53
  1998 Honda Civic EK4 biela  LukasVTi 899 0 4.4.2009 , 22:15
  1993 Honda CR-X DelSol červená  Meethos 2719 6 2.4.2009 , 22:16
  2010 Honda CR-X DelSol černá  quast 1875 0 2.4.2009 , 13:41
  1996 Honda Civic Vti   kamol 11268 7 31.3.2009 , 0:04
  1999 Honda Accord Silver metal  treks 1322 0 28.3.2009 , 13:53
  1991 Honda Civic VT Bílá perleť  VikyVTEC 1953 0 26.3.2009 , 22:19
  1997 Honda Prelude VTEC Supermarine Blue  OTWU85 2245 0 25.3.2009 , 0:25
  1994 Honda Civic modro-zelena metla  vojt4s 5217 14 20.3.2009 , 11:53
  1992 Honda Civic Stříbrná Metalíza  R4ZoR 2060 0 19.3.2009 , 20:22
  1999 Honda Civic Milano-red  mendo 2011 0 18.3.2009 , 22:48
  1993 Honda Civic modrá základní  tk.kolik 750 0 17.3.2009 , 23:09
  1990 Honda Civic Černá  PyroDC 2752 14 16.3.2009 , 22:55
  1996 Honda Civic Coupe Inza Red Pearl  david_cz 3984 0 16.3.2009 , 18:38
  1994 Honda Accord tmavě červená  milvoky1 721 0 12.3.2009 , 16:24
  1994 Honda Civic pěkná (výnová)  melmen 1095 0 8.3.2009 , 23:24
  1992 Honda Civic   daviii 3503 0 7.3.2009 , 2:50
  1999 Honda Accord Coupe stříbrná-růž perleť  murena11 1859 0 5.3.2009 , 23:33
  1993 Honda Accord šedá tmavá metal  kumstikf 1473 0 3.3.2009 , 9:49
  1994 Honda Civic Modrá metalíza  cicvic09 812 0 1.3.2009 , 12:12
  1993 Honda Prelude šedá metalíza  Punky 2752 6 28.2.2009 , 21:18
  1997 Honda Civic Coupe červená ( Miláno red 36 )  McHans 2838 0 28.2.2009 , 10:45
Jdi na stránku Předchozí  1, 2, 3 ... 15, 16, 17, 18  Další 
Třídění aut dle   V   



Board Security

(96973 útoků)
::  www.honda-club.cz  :: poslední témata RSS TOPlist

[ Čas: 0.4864s ][ Dotazy: 25 (0.4041s) ][ GZIP on - Debug on ]